createdAt,value
2019-04-22T00:09:53.138Z,8.98
2019-04-22T00:20:03.099Z,8.18
2019-04-22T00:30:07.883Z,8.15
2019-04-22T00:40:07.293Z,9.23
2019-04-22T00:50:18.974Z,8.85
2019-04-22T01:00:27.749Z,8.83
2019-04-22T01:10:36.602Z,9.60
2019-04-22T01:30:32.698Z,11.20
2019-04-22T01:40:54.222Z,11.08
2019-04-22T01:50:59.473Z,10.72
2019-04-22T02:01:04.919Z,9.80
2019-04-22T02:11:23.704Z,10.30
2019-04-22T02:21:24.907Z,10.55
2019-04-22T02:31:56.051Z,10.48
2019-04-22T02:41:55.212Z,11.08
2019-04-22T02:51:43.207Z,9.58
2019-04-22T03:02:14.424Z,10.43
2019-04-22T03:12:13.477Z,10.90
2019-04-22T03:22:19.246Z,10.20
2019-04-22T03:42:23.312Z,10.88
2019-04-22T04:43:10.020Z,10.45
2019-04-22T04:53:20.563Z,11.75
2019-04-22T05:03:29.746Z,12.05
2019-04-22T05:13:33.002Z,11.50
2019-04-22T05:23:39.387Z,11.12
2019-04-22T05:33:46.247Z,10.82
2019-04-22T05:43:50.230Z,10.82
2019-04-22T05:53:59.494Z,10.60
2019-04-22T06:14:05.871Z,8.53
2019-04-22T06:24:23.530Z,9.70
2019-04-22T06:34:22.307Z,8.13
2019-04-22T06:44:29.742Z,8.65
2019-04-22T07:04:42.982Z,9.50
2019-04-22T07:14:50.376Z,8.28
2019-04-22T07:24:58.978Z,8.18
2019-04-22T07:35:08.535Z,7.85
2019-04-22T07:45:10.105Z,7.67
2019-04-22T07:55:13.441Z,7.28
2019-04-22T08:05:37.837Z,7.50
2019-04-22T08:15:33.427Z,5.47
2019-04-22T08:25:43.162Z,4.78
2019-04-22T08:36:07.120Z,5.47
2019-04-22T08:45:59.403Z,4.97
2019-04-22T08:56:21.574Z,4.12
2019-04-22T09:16:19.402Z,3.40
2019-04-22T09:26:30.282Z,3.30
2019-04-22T09:36:33.970Z,3.05
2019-04-22T09:46:41.312Z,3.10
2019-04-22T10:06:45.550Z,3.30
2019-04-22T10:16:59.982Z,3.67
2019-04-22T10:27:07.737Z,3.95
2019-04-22T10:36:53.338Z,4.20
2019-04-22T10:46:58.061Z,4.12
2019-04-22T10:57:03.441Z,4.30
2019-04-22T11:07:11.005Z,3.60
2019-04-22T11:17:17.583Z,3.40
2019-04-22T11:27:23.386Z,3.33
2019-04-22T11:37:30.072Z,3.05
2019-04-22T11:47:37.253Z,2.20
2019-04-22T11:57:43.083Z,2.27
2019-04-22T12:07:50.956Z,2.50
2019-04-22T12:17:57.346Z,2.90
2019-04-22T12:28:03.298Z,2.87
2019-04-22T12:38:12.360Z,2.90
2019-04-22T12:48:17.092Z,2.60
2019-04-22T12:58:23.436Z,2.72
2019-04-22T13:08:29.816Z,2.22
2019-04-22T13:18:42.019Z,1.98
2019-04-22T13:28:43.124Z,2.30
2019-04-22T13:38:49.187Z,1.87
2019-04-22T13:49:25.202Z,1.90
2019-04-22T13:59:10.195Z,1.70
2019-04-22T14:09:11.478Z,1.33
2019-04-22T14:19:18.414Z,1.10
2019-04-22T14:29:23.987Z,1.02
2019-04-22T14:39:30.326Z,1.50
2019-04-22T14:50:02.779Z,1.40
2019-04-22T14:59:43.984Z,1.55
2019-04-22T15:09:50.341Z,1.65
2019-04-22T15:20:03.846Z,1.25
2019-04-22T15:30:09.901Z,1.10
2019-04-22T15:40:16.561Z,1.40
2019-04-22T15:50:22.611Z,1.40
2019-04-22T16:00:38.385Z,1.20
2019-04-22T16:10:35.790Z,1.12
2019-04-22T16:20:41.207Z,0.90
2019-04-22T16:30:46.627Z,1.98
2019-04-22T16:40:52.747Z,0.95
2019-04-22T16:50:58.470Z,1.35
2019-04-22T17:01:07.015Z,1.50
2019-04-22T17:11:13.591Z,1.20
2019-04-22T17:21:19.605Z,1.35
2019-04-22T17:31:25.147Z,1.55
2019-04-22T17:41:50.665Z,2.05
2019-04-22T17:52:16.900Z,1.47
2019-04-22T18:02:22.160Z,1.90
2019-04-22T18:12:39.720Z,2.37
2019-04-22T18:22:29.455Z,2.45
2019-04-22T18:32:43.799Z,2.80
2019-04-22T18:42:58.803Z,3.42
2019-04-22T18:53:21.637Z,3.05
2019-04-22T19:03:15.643Z,2.77
2019-04-22T19:23:44.940Z,3.47
2019-04-22T19:33:53.832Z,2.80
2019-04-22T19:43:58.633Z,3.12
2019-04-22T19:54:01.420Z,2.90
2019-04-22T20:04:44.457Z,3.30
2019-04-22T20:14:48.110Z,3.20
2019-04-22T20:24:40.904Z,3.30
2019-04-22T20:34:57.582Z,3.47
2019-04-22T20:45:08.555Z,3.50
2019-04-22T20:55:08.247Z,3.50
2019-04-22T21:05:13.531Z,3.98
2019-04-22T21:15:32.554Z,3.85
2019-04-22T21:25:24.235Z,3.45
2019-04-22T21:35:55.021Z,4.40
2019-04-22T21:45:43.257Z,4.45
2019-04-22T21:56:10.082Z,5.45
2019-04-22T22:05:54.423Z,6.20
2019-04-22T22:16:05.193Z,6.92
2019-04-22T22:26:12.319Z,7.35
2019-04-22T22:36:20.263Z,7.05
2019-04-22T22:46:22.164Z,7.80
2019-04-22T22:56:42.640Z,7.97
2019-04-22T23:06:46.796Z,7.70
2019-04-22T23:16:40.445Z,8.45
2019-04-22T23:27:12.577Z,8.60
2019-04-22T23:37:25.213Z,8.88
2019-04-22T23:47:33.724Z,8.70
2019-04-22T23:57:46.946Z,8.03
